createdAt,value
2022-08-21T00:01:22.576Z,15.80
2022-08-21T00:03:57.723Z,15.70
2022-08-21T00:06:32.522Z,15.70
2022-08-21T00:09:09.404Z,15.70
2022-08-21T00:11:43.545Z,15.70
2022-08-21T00:14:19.133Z,15.60
2022-08-21T00:16:54.813Z,15.70
2022-08-21T00:19:34.843Z,15.70
2022-08-21T00:22:08.989Z,15.50
2022-08-21T00:24:43.135Z,15.50
2022-08-21T00:27:17.214Z,15.50
2022-08-21T00:29:51.587Z,15.50
2022-08-21T00:32:29.683Z,15.50
2022-08-21T00:35:03.796Z,15.50
2022-08-21T00:37:38.015Z,15.50
2022-08-21T00:40:20.340Z,15.50
2022-08-21T00:42:54.706Z,15.50
2022-08-21T00:45:29.793Z,15.50
2022-08-21T00:48:06.641Z,15.50
2022-08-21T00:50:47.123Z,15.40
2022-08-21T00:53:21.945Z,15.40
2022-08-21T00:55:57.793Z,15.40
2022-08-21T00:58:34.049Z,15.40
2022-08-21T01:01:10.488Z,15.40
2022-08-21T01:03:46.102Z,15.30
2022-08-21T01:06:20.940Z,15.30
2022-08-21T01:08:55.100Z,15.30
2022-08-21T01:11:29.327Z,15.20
2022-08-21T01:14:04.115Z,15.20
2022-08-21T01:16:38.643Z,15.20
2022-08-21T01:19:15.025Z,15.20
2022-08-21T01:21:50.549Z,15.10
2022-08-21T01:24:25.968Z,15.10
2022-08-21T01:27:01.144Z,15.10
2022-08-21T01:29:40.984Z,15.10
2022-08-21T01:32:20.403Z,15.10
2022-08-21T01:34:54.870Z,15.00
2022-08-21T01:37:30.542Z,15.00
2022-08-21T01:40:06.054Z,14.90
2022-08-21T01:42:42.486Z,14.80
2022-08-21T01:45:17.791Z,14.80
2022-08-21T01:47:51.985Z,14.80
2022-08-21T01:50:26.375Z,14.90
2022-08-21T01:53:01.618Z,14.90
2022-08-21T01:55:35.498Z,14.80
2022-08-21T01:58:09.573Z,14.70
2022-08-21T02:00:43.571Z,14.70
2022-08-21T02:03:23.257Z,14.60
2022-08-21T02:06:15.973Z,14.60
2022-08-21T02:08:52.472Z,14.60
2022-08-21T02:11:26.826Z,14.60
2022-08-21T02:14:01.279Z,14.60
2022-08-21T02:16:35.787Z,14.50
2022-08-21T02:19:11.437Z,14.50
2022-08-21T02:21:46.322Z,14.50
2022-08-21T02:24:22.371Z,14.50
2022-08-21T02:26:56.511Z,14.50
2022-08-21T02:29:30.694Z,14.40
2022-08-21T02:32:04.678Z,14.40
2022-08-21T02:34:38.658Z,14.30
2022-08-21T02:37:14.130Z,14.40
2022-08-21T02:39:49.776Z,14.40
2022-08-21T02:42:23.829Z,14.40
2022-08-21T02:44:57.837Z,14.40
2022-08-21T02:47:31.567Z,14.40
2022-08-21T02:50:06.969Z,14.40
2022-08-21T02:52:41.457Z,14.40
2022-08-21T02:55:17.503Z,14.40
2022-08-21T02:57:51.940Z,14.30
2022-08-21T03:00:30.326Z,14.40
2022-08-21T03:03:05.199Z,14.20
2022-08-21T03:05:39.900Z,14.20
2022-08-21T03:08:17.017Z,14.10
2022-08-21T03:10:54.726Z,14.10
2022-08-21T03:13:28.997Z,14.10
2022-08-21T03:16:02.895Z,14.00
2022-08-21T03:18:38.967Z,13.90
2022-08-21T03:21:14.305Z,13.80
2022-08-21T03:23:48.632Z,13.80
2022-08-21T03:26:26.225Z,13.70
2022-08-21T03:29:02.135Z,13.70
2022-08-21T03:31:36.105Z,13.60
2022-08-21T03:34:10.144Z,13.60
2022-08-21T03:36:44.628Z,13.70
2022-08-21T03:39:18.665Z,13.60
2022-08-21T03:41:55.561Z,13.70
2022-08-21T03:44:31.251Z,13.70
2022-08-21T03:47:06.206Z,13.80
2022-08-21T03:49:40.757Z,13.80
2022-08-21T03:52:15.044Z,13.70
2022-08-21T03:54:48.549Z,13.70
2022-08-21T03:57:23.958Z,13.70
2022-08-21T03:59:58.043Z,13.80
2022-08-21T04:02:31.845Z,13.70
2022-08-21T04:05:07.678Z,13.70
2022-08-21T04:07:41.948Z,13.70
2022-08-21T04:10:16.799Z,13.70
2022-08-21T04:12:52.478Z,13.70
2022-08-21T04:15:28.634Z,13.60
2022-08-21T04:18:02.917Z,13.50
2022-08-21T04:20:37.200Z,13.40
2022-08-21T04:23:11.467Z,13.40
2022-08-21T04:25:45.819Z,13.40
2022-08-21T04:28:22.465Z,13.40
2022-08-21T04:30:57.864Z,13.30
2022-08-21T04:33:31.920Z,13.20
2022-08-21T04:36:08.152Z,13.10
2022-08-21T04:38:43.207Z,13.00
2022-08-21T04:41:19.007Z,13.00
2022-08-21T04:44:03.611Z,13.10
2022-08-21T04:46:37.500Z,13.10
2022-08-21T04:49:11.475Z,13.20
2022-08-21T04:51:45.580Z,13.10
2022-08-21T04:54:23.389Z,13.10
2022-08-21T04:57:04.631Z,13.00
2022-08-21T04:59:43.671Z,13.00
2022-08-21T05:02:18.056Z,13.10
2022-08-21T05:04:55.767Z,13.20
2022-08-21T05:07:42.714Z,13.30
2022-08-21T05:10:17.759Z,13.40
2022-08-21T05:12:52.259Z,13.40
2022-08-21T05:15:27.822Z,13.40
2022-08-21T05:18:01.676Z,13.50
2022-08-21T05:20:35.875Z,13.50
2022-08-21T05:23:10.910Z,13.40
2022-08-21T05:25:46.139Z,13.40
2022-08-21T05:28:20.139Z,13.50
2022-08-21T05:30:56.095Z,13.50
2022-08-21T05:33:30.426Z,13.40
2022-08-21T05:36:04.532Z,13.50
2022-08-21T05:38:39.042Z,13.70
2022-08-21T05:41:13.782Z,13.80
2022-08-21T05:43:48.783Z,13.90
2022-08-21T05:46:24.333Z,14.00
2022-08-21T05:48:58.883Z,14.20
2022-08-21T05:51:33.215Z,14.50
2022-08-21T05:54:07.926Z,14.80
2022-08-21T05:56:45.810Z,14.80
2022-08-21T05:59:21.225Z,15.00
2022-08-21T06:01:57.377Z,15.40
2022-08-21T06:04:31.838Z,15.80
2022-08-21T06:07:06.298Z,16.30
2022-08-21T06:09:40.887Z,16.60
2022-08-21T06:12:16.843Z,16.80
2022-08-21T06:14:56.400Z,17.10
2022-08-21T06:17:33.320Z,17.40
2022-08-21T06:20:09.025Z,17.70
2022-08-21T06:22:43.458Z,18.00
2022-08-21T06:25:18.074Z,18.30
2022-08-21T06:27:52.866Z,18.30
2022-08-21T06:30:28.541Z,18.90
2022-08-21T06:33:05.190Z,19.30
2022-08-21T06:35:40.462Z,19.20
2022-08-21T06:38:16.214Z,19.40
2022-08-21T06:40:50.550Z,19.70
2022-08-21T06:43:39.294Z,20.10
2022-08-21T06:46:13.958Z,20.30
2022-08-21T06:48:54.593Z,20.40
2022-08-21T06:51:30.023Z,20.70
2022-08-21T06:54:04.916Z,20.80
2022-08-21T06:56:39.654Z,21.00
2022-08-21T06:59:14.677Z,21.20
2022-08-21T07:01:49.388Z,21.20
2022-08-21T07:04:25.137Z,21.60
2022-08-21T07:06:59.543Z,21.40
2022-08-21T07:09:34.522Z,21.50
2022-08-21T07:12:09.054Z,21.50
2022-08-21T07:14:43.608Z,21.70
2022-08-21T07:17:18.011Z,21.80
2022-08-21T07:19:53.789Z,22.10
2022-08-21T07:22:29.169Z,22.30
2022-08-21T07:25:02.633Z,22.60
2022-08-21T07:27:37.501Z,22.80
2022-08-21T07:30:12.911Z,22.80
2022-08-21T07:32:47.285Z,23.00
2022-08-21T07:35:23.555Z,23.40
2022-08-21T07:37:58.247Z,23.50
2022-08-21T07:40:32.911Z,23.20
2022-08-21T07:43:06.491Z,23.60
2022-08-21T07:45:41.278Z,23.60
2022-08-21T07:48:14.683Z,23.40
2022-08-21T07:50:51.373Z,23.80
2022-08-21T07:53:26.331Z,24.00
2022-08-21T07:56:01.463Z,23.90
2022-08-21T07:58:35.756Z,24.00
2022-08-21T08:01:09.319Z,23.90
2022-08-21T08:03:43.855Z,24.10
2022-08-21T08:06:20.870Z,24.10
2022-08-21T08:08:55.723Z,24.30
2022-08-21T08:11:29.457Z,24.50
2022-08-21T08:14:04.976Z,24.20
2022-08-21T08:16:39.190Z,24.10
2022-08-21T08:19:13.870Z,24.30
2022-08-21T08:21:50.064Z,24.40
2022-08-21T08:24:24.390Z,24.20
2022-08-21T08:26:59.056Z,24.10
2022-08-21T08:29:33.644Z,24.40
2022-08-21T08:32:11.330Z,24.80
2022-08-21T08:34:46.121Z,24.90
2022-08-21T08:37:24.078Z,24.60
2022-08-21T08:40:04.537Z,24.70
2022-08-21T08:42:40.777Z,25.00
2022-08-21T08:45:19.285Z,25.00
2022-08-21T08:48:05.272Z,25.10
2022-08-21T08:50:48.291Z,25.30
2022-08-21T08:53:28.512Z,25.30
2022-08-21T08:56:05.505Z,25.20
2022-08-21T08:58:44.240Z,25.40
2022-08-21T09:01:23.412Z,25.60
2022-08-21T09:04:03.108Z,25.40
2022-08-21T09:06:57.339Z,25.70
2022-08-21T09:09:49.128Z,26.00
2022-08-21T09:12:36.624Z,26.00
2022-08-21T09:15:23.485Z,25.90
2022-08-21T09:18:35.545Z,25.70
2022-08-21T09:21:19.654Z,26.00
2022-08-21T09:24:03.844Z,26.00
2022-08-21T09:26:50.189Z,25.80
2022-08-21T09:29:30.628Z,25.90
2022-08-21T09:32:06.399Z,26.10
2022-08-21T09:34:40.604Z,26.30
2022-08-21T09:37:20.994Z,25.90
2022-08-21T09:39:55.136Z,25.90
2022-08-21T09:42:34.299Z,25.80
2022-08-21T09:45:14.968Z,26.00
2022-08-21T09:47:49.284Z,26.20
2022-08-21T09:50:28.445Z,26.30
2022-08-21T09:53:04.786Z,26.00
2022-08-21T09:56:11.359Z,26.40
2022-08-21T09:58:52.251Z,26.20
2022-08-21T10:01:28.854Z,26.20
2022-08-21T10:04:07.716Z,26.40
2022-08-21T10:06:42.763Z,26.20
2022-08-21T10:09:21.762Z,26.20
2022-08-21T10:12:13.015Z,26.30
2022-08-21T10:15:08.547Z,26.20
2022-08-21T10:17:55.568Z,26.10
2022-08-21T10:20:38.960Z,26.00
2022-08-21T10:23:32.445Z,26.00
2022-08-21T10:26:17.061Z,26.30
2022-08-21T10:29:00.079Z,26.50
2022-08-21T10:31:48.245Z,26.30
2022-08-21T10:34:39.737Z,26.40
2022-08-21T10:37:27.395Z,26.60
2022-08-21T10:40:14.835Z,26.70
2022-08-21T10:43:03.213Z,26.70
2022-08-21T10:45:51.435Z,26.80
2022-08-21T10:48:32.729Z,26.70
2022-08-21T10:51:13.649Z,26.70
2022-08-21T10:54:01.993Z,26.80
2022-08-21T10:56:44.109Z,26.60
2022-08-21T10:59:37.991Z,26.60
2022-08-21T11:02:21.401Z,26.70
2022-08-21T11:05:04.252Z,26.50
2022-08-21T11:07:46.667Z,26.50
2022-08-21T11:10:28.901Z,26.40
2022-08-21T11:13:09.989Z,26.30
2022-08-21T11:15:52.219Z,26.40
2022-08-21T11:18:31.282Z,26.30
2022-08-21T11:21:22.406Z,26.50
2022-08-21T11:24:05.714Z,26.70
2022-08-21T11:26:46.864Z,26.00
2022-08-21T11:29:31.399Z,26.00
2022-08-21T11:32:46.638Z,26.20
2022-08-21T11:35:30.350Z,26.50
2022-08-21T11:38:20.291Z,26.30
2022-08-21T11:41:15.353Z,26.00
2022-08-21T11:43:57.196Z,25.80
2022-08-21T11:46:42.891Z,25.70
2022-08-21T11:49:37.399Z,25.60
2022-08-21T11:52:21.568Z,25.50
2022-08-21T11:55:04.139Z,25.50
2022-08-21T11:57:45.883Z,25.70
2022-08-21T12:00:27.702Z,25.80
2022-08-21T12:03:12.413Z,26.00
2022-08-21T12:05:57.130Z,25.80
2022-08-21T12:08:35.229Z,25.90
2022-08-21T12:11:13.673Z,25.80
2022-08-21T12:14:02.259Z,25.70
2022-08-21T12:16:39.094Z,25.80
2022-08-21T12:19:16.181Z,25.80
2022-08-21T12:21:56.518Z,26.20
2022-08-21T12:24:41.725Z,26.20
2022-08-21T12:27:33.705Z,26.20
2022-08-21T12:30:27.361Z,25.90
2022-08-21T12:33:25.494Z,25.80
2022-08-21T12:36:09.774Z,25.60
2022-08-21T12:39:05.366Z,25.30
2022-08-21T12:41:50.606Z,25.40
2022-08-21T12:44:44.421Z,25.70
2022-08-21T12:47:31.044Z,25.70
2022-08-21T12:50:12.267Z,25.60
2022-08-21T12:53:01.496Z,25.80
2022-08-21T12:55:38.070Z,25.90
2022-08-21T12:58:22.022Z,25.70
2022-08-21T13:01:04.600Z,25.60
2022-08-21T13:03:41.084Z,25.60
2022-08-21T13:06:19.883Z,25.70
2022-08-21T13:09:03.520Z,26.10
2022-08-21T13:11:40.837Z,26.20
2022-08-21T13:14:35.173Z,26.20
2022-08-21T13:17:26.081Z,25.90
2022-08-21T13:20:03.783Z,25.90
2022-08-21T13:22:45.360Z,25.80
2022-08-21T13:25:24.047Z,25.80
2022-08-21T13:28:08.466Z,25.70
2022-08-21T13:30:53.493Z,25.80
2022-08-21T13:33:37.435Z,25.90
2022-08-21T13:36:17.863Z,26.10
2022-08-21T13:38:54.998Z,26.30
2022-08-21T13:41:33.289Z,26.30
2022-08-21T13:44:28.857Z,26.20
2022-08-21T13:47:06.550Z,26.20
2022-08-21T13:49:47.991Z,25.90
2022-08-21T13:52:32.902Z,25.90
2022-08-21T13:55:17.775Z,25.70
2022-08-21T13:58:03.056Z,25.80
2022-08-21T14:00:47.655Z,26.10
2022-08-21T14:03:33.812Z,26.20
2022-08-21T14:06:19.200Z,26.00
2022-08-21T14:08:58.380Z,25.90
2022-08-21T14:11:37.941Z,25.90
2022-08-21T14:14:24.005Z,26.00
2022-08-21T14:17:01.258Z,25.90
2022-08-21T14:19:56.465Z,26.00
2022-08-21T14:22:40.352Z,26.10
2022-08-21T14:25:29.231Z,26.10
2022-08-21T14:28:27.910Z,26.20
2022-08-21T14:31:17.284Z,26.30
2022-08-21T14:33:52.837Z,26.20
2022-08-21T14:36:27.744Z,26.10
2022-08-21T14:39:04.424Z,26.10
2022-08-21T14:41:40.770Z,26.20
2022-08-21T14:44:16.310Z,26.20
2022-08-21T14:46:55.732Z,26.20
2022-08-21T14:49:33.198Z,26.30
2022-08-21T14:52:08.743Z,26.10
2022-08-21T14:54:45.073Z,26.10
2022-08-21T14:57:19.961Z,26.10
2022-08-21T14:59:56.997Z,26.30
2022-08-21T15:02:34.946Z,26.20
2022-08-21T15:05:10.046Z,26.10
2022-08-21T15:07:45.842Z,26.10
2022-08-21T15:10:22.903Z,26.00
2022-08-21T15:12:57.502Z,26.00
2022-08-21T15:15:33.137Z,26.00
2022-08-21T15:18:08.168Z,26.00
2022-08-21T15:20:43.092Z,26.00
2022-08-21T15:23:18.570Z,26.00
2022-08-21T15:25:58.535Z,26.00
2022-08-21T15:28:33.573Z,25.90
2022-08-21T15:31:08.237Z,25.80
2022-08-21T15:33:42.907Z,25.70
2022-08-21T15:36:17.583Z,25.90
2022-08-21T15:38:52.453Z,25.90
2022-08-21T15:41:28.542Z,25.90
2022-08-21T15:44:02.978Z,25.90
2022-08-21T15:46:36.812Z,25.80
2022-08-21T15:49:11.307Z,25.70
2022-08-21T15:51:45.839Z,25.70
2022-08-21T15:54:19.581Z,25.60
2022-08-21T15:56:54.935Z,25.70
2022-08-21T15:59:41.652Z,25.60
2022-08-21T16:02:18.955Z,25.60
2022-08-21T16:04:53.277Z,25.70
2022-08-21T16:07:27.070Z,25.60
2022-08-21T16:10:03.605Z,25.60
2022-08-21T16:12:46.721Z,25.70
2022-08-21T16:15:21.723Z,25.70
2022-08-21T16:17:57.154Z,25.80
2022-08-21T16:20:32.484Z,25.60
2022-08-21T16:23:07.320Z,25.50
2022-08-21T16:25:44.579Z,25.40
2022-08-21T16:28:23.640Z,25.40
2022-08-21T16:30:58.548Z,25.30
2022-08-21T16:33:36.999Z,25.30
2022-08-21T16:36:12.371Z,25.20
2022-08-21T16:38:48.586Z,25.20
2022-08-21T16:41:24.483Z,25.10
2022-08-21T16:44:01.126Z,25.00
2022-08-21T16:46:37.967Z,25.00
2022-08-21T16:49:11.423Z,24.80
2022-08-21T16:51:45.463Z,24.70
2022-08-21T16:54:21.074Z,24.60
2022-08-21T16:56:54.654Z,24.60
2022-08-21T16:59:31.010Z,24.60
2022-08-21T17:02:05.116Z,24.50
2022-08-21T17:04:39.270Z,24.50
2022-08-21T17:07:13.344Z,24.50
2022-08-21T17:09:47.344Z,24.50
2022-08-21T17:12:21.377Z,24.50
2022-08-21T17:14:58.289Z,24.40
2022-08-21T17:17:32.652Z,24.30
2022-08-21T17:20:08.156Z,24.20
2022-08-21T17:22:42.298Z,24.10
2022-08-21T17:25:17.736Z,24.00
2022-08-21T17:27:52.568Z,23.80
2022-08-21T17:30:28.122Z,23.60
2022-08-21T17:33:03.126Z,23.60
2022-08-21T17:35:37.304Z,23.40
2022-08-21T17:38:14.754Z,23.40
2022-08-21T17:40:50.071Z,23.30
2022-08-21T17:43:25.139Z,23.20
2022-08-21T17:46:00.936Z,23.10
2022-08-21T17:48:36.340Z,23.00
2022-08-21T17:51:11.973Z,22.80
2022-08-21T17:53:46.410Z,22.70
2022-08-21T17:56:21.675Z,22.60
2022-08-21T17:58:55.732Z,22.40
2022-08-21T18:01:36.659Z,22.40
2022-08-21T18:04:10.470Z,22.30
2022-08-21T18:06:45.855Z,22.10
2022-08-21T18:09:21.110Z,22.00
2022-08-21T18:11:55.412Z,21.80
2022-08-21T18:14:32.763Z,21.70
2022-08-21T18:17:13.649Z,21.70
2022-08-21T18:19:51.231Z,21.50
2022-08-21T18:22:24.980Z,21.40
2022-08-21T18:24:58.999Z,21.30
2022-08-21T18:27:33.306Z,21.30
2022-08-21T18:30:08.760Z,21.10
2022-08-21T18:32:44.573Z,21.00
2022-08-21T18:35:18.809Z,20.90
2022-08-21T18:37:52.479Z,20.80
2022-08-21T18:40:26.347Z,20.70
2022-08-21T18:43:04.263Z,20.60
2022-08-21T18:45:39.260Z,20.60
2022-08-21T18:48:16.363Z,20.40
2022-08-21T18:50:50.463Z,20.40
2022-08-21T18:53:27.747Z,20.30
2022-08-21T18:56:05.475Z,20.20
2022-08-21T18:58:39.613Z,20.10
2022-08-21T19:01:14.850Z,20.00
2022-08-21T19:03:52.733Z,19.90
2022-08-21T19:06:27.097Z,19.80
2022-08-21T19:09:02.217Z,19.70
2022-08-21T19:11:37.951Z,19.60
2022-08-21T19:14:18.450Z,19.60
2022-08-21T19:16:52.199Z,19.50
2022-08-21T19:19:28.022Z,19.50
2022-08-21T19:22:03.868Z,19.40
2022-08-21T19:24:38.158Z,19.30
2022-08-21T19:27:12.813Z,19.20
2022-08-21T19:29:47.041Z,19.20
2022-08-21T19:32:21.281Z,19.10
2022-08-21T19:34:56.570Z,19.00
2022-08-21T19:37:31.402Z,18.80
2022-08-21T19:40:07.151Z,18.80
2022-08-21T19:42:43.212Z,18.80
2022-08-21T19:45:16.748Z,18.70
2022-08-21T19:47:50.862Z,18.60
2022-08-21T19:50:25.900Z,18.50
2022-08-21T19:52:59.379Z,18.40
2022-08-21T19:55:33.428Z,18.40
2022-08-21T19:58:08.857Z,18.30
2022-08-21T20:00:44.176Z,18.20
2022-08-21T20:03:21.206Z,18.20
2022-08-21T20:05:56.668Z,18.10
2022-08-21T20:08:30.536Z,18.00
2022-08-21T20:11:05.178Z,18.00
2022-08-21T20:13:39.559Z,17.90
2022-08-21T20:16:17.726Z,17.80
2022-08-21T20:18:51.544Z,17.70
2022-08-21T20:21:27.517Z,17.60
2022-08-21T20:24:01.372Z,17.60
2022-08-21T20:26:35.601Z,17.60
2022-08-21T20:29:09.829Z,17.50
2022-08-21T20:31:44.191Z,17.50
2022-08-21T20:34:17.955Z,17.50
2022-08-21T20:36:53.243Z,17.50
2022-08-21T20:39:26.968Z,17.40
2022-08-21T20:42:00.367Z,17.30
2022-08-21T20:44:34.458Z,17.20
2022-08-21T20:47:09.364Z,17.10
2022-08-21T20:49:48.212Z,17.10
2022-08-21T20:52:26.661Z,17.00
2022-08-21T20:55:08.133Z,17.00
2022-08-21T20:57:51.106Z,16.90
2022-08-21T21:00:27.008Z,16.90
2022-08-21T21:03:08.594Z,16.90
2022-08-21T21:05:50.020Z,16.80
2022-08-21T21:08:30.466Z,16.80
2022-08-21T21:11:07.787Z,16.70
2022-08-21T21:13:48.577Z,16.60
2022-08-21T21:16:29.400Z,16.60
2022-08-21T21:19:06.542Z,16.60
2022-08-21T21:21:52.288Z,16.60
2022-08-21T21:24:35.685Z,16.60
2022-08-21T21:30:15.262Z,16.40
2022-08-21T21:32:50.220Z,16.30
2022-08-21T21:38:35.411Z,16.30
2022-08-21T21:41:20.954Z,16.20
2022-08-21T21:44:22.387Z,16.10
2022-08-21T21:47:04.980Z,16.10
2022-08-21T21:50:00.894Z,16.00
2022-08-21T21:52:58.991Z,16.00
2022-08-21T21:55:52.211Z,16.00
2022-08-21T21:58:45.371Z,15.90
2022-08-21T22:01:28.333Z,15.80
2022-08-21T22:04:06.712Z,15.80
2022-08-21T22:06:51.291Z,15.70
2022-08-21T22:09:40.949Z,15.70
2022-08-21T22:12:49.536Z,15.70
2022-08-21T22:15:35.133Z,15.70
2022-08-21T22:18:12.144Z,15.70
2022-08-21T22:20:54.482Z,15.60
2022-08-21T22:23:33.693Z,15.60
2022-08-21T22:26:14.643Z,15.50
2022-08-21T22:28:51.826Z,15.50
2022-08-21T22:31:30.239Z,15.40
2022-08-21T22:34:18.053Z,15.40
2022-08-21T22:37:01.166Z,15.40
2022-08-21T22:39:40.403Z,15.30
2022-08-21T22:42:22.582Z,15.30
2022-08-21T22:45:02.031Z,15.30
2022-08-21T22:47:43.861Z,15.30
2022-08-21T22:50:30.636Z,15.30
2022-08-21T22:53:08.435Z,15.30
2022-08-21T22:55:47.067Z,15.20
2022-08-21T22:58:27.167Z,15.20
2022-08-21T23:01:06.223Z,15.20
2022-08-21T23:03:49.012Z,15.10
2022-08-21T23:06:29.954Z,15.00
2022-08-21T23:09:05.235Z,14.90
2022-08-21T23:11:45.296Z,14.90
2022-08-21T23:14:26.789Z,14.90
2022-08-21T23:17:06.212Z,14.90
2022-08-21T23:19:58.290Z,15.00
2022-08-21T23:22:47.897Z,14.90
2022-08-21T23:25:47.224Z,14.90
2022-08-21T23:28:40.324Z,14.90
2022-08-21T23:31:26.621Z,14.90
2022-08-21T23:34:09.283Z,14.80
2022-08-21T23:37:18.995Z,14.70
2022-08-21T23:40:14.361Z,14.70
2022-08-21T23:43:05.369Z,14.60
2022-08-21T23:46:01.925Z,14.50
2022-08-21T23:48:59.615Z,14.50
2022-08-21T23:51:53.015Z,14.50
2022-08-21T23:54:41.087Z,14.60
2022-08-21T23:57:31.567Z,14.50
